createdAt,value
2017-10-12T00:00:54.982Z,38.80
2017-10-12T00:03:22.549Z,39.40
2017-10-12T00:05:50.075Z,38.80
2017-10-12T00:08:18.383Z,39.40
2017-10-12T00:10:45.936Z,38.80
2017-10-12T00:13:13.520Z,38.80
2017-10-12T00:15:41.023Z,38.80
2017-10-12T00:18:08.617Z,38.80
2017-10-12T00:20:36.297Z,38.80
2017-10-12T00:23:03.853Z,38.70
2017-10-12T00:25:31.429Z,38.70
2017-10-12T00:27:58.997Z,38.70
2017-10-12T00:30:26.551Z,38.70
2017-10-12T00:32:54.119Z,38.70
2017-10-12T00:35:21.670Z,38.70
2017-10-12T00:37:49.195Z,38.60
2017-10-12T00:40:16.775Z,38.60
2017-10-12T00:42:44.333Z,38.60
2017-10-12T00:45:11.919Z,38.60
2017-10-12T00:47:39.481Z,38.40
2017-10-12T00:50:07.044Z,38.50
2017-10-12T00:52:34.687Z,38.50
2017-10-12T00:55:02.255Z,38.50
2017-10-12T00:57:29.783Z,38.50
2017-10-12T00:59:57.455Z,38.50
2017-10-12T01:02:25.011Z,38.50
2017-10-12T01:04:52.589Z,38.50
2017-10-12T01:07:20.117Z,38.50
2017-10-12T01:09:48.465Z,38.50
2017-10-12T01:12:16.025Z,38.50
2017-10-12T01:14:44.311Z,38.50
2017-10-12T01:17:12.643Z,38.50
2017-10-12T01:19:40.171Z,38.40
2017-10-12T01:22:07.719Z,38.50
2017-10-12T01:24:35.252Z,38.50
2017-10-12T01:27:03.549Z,38.70
2017-10-12T01:29:31.862Z,38.50
2017-10-12T01:31:59.383Z,38.40
2017-10-12T01:34:27.889Z,38.40
2017-10-12T01:36:56.352Z,39.10
2017-10-12T01:39:23.948Z,38.40
2017-10-12T01:41:51.466Z,38.50
2017-10-12T01:44:18.951Z,38.50
2017-10-12T01:46:46.780Z,38.50
2017-10-12T01:49:15.089Z,38.50
2017-10-12T01:51:42.657Z,38.40
2017-10-12T01:54:11.219Z,38.40
2017-10-12T01:56:38.870Z,38.50
2017-10-12T01:59:07.203Z,38.50
2017-10-12T02:01:34.739Z,38.40
2017-10-12T02:04:02.391Z,38.50
2017-10-12T02:06:29.964Z,38.40
2017-10-12T02:08:57.483Z,38.50
2017-10-12T02:11:25.029Z,38.40
2017-10-12T02:13:53.362Z,38.40
2017-10-12T02:16:20.915Z,38.40
2017-10-12T02:18:48.447Z,38.50
2017-10-12T02:21:16.015Z,38.40
2017-10-12T02:23:43.609Z,38.40
2017-10-12T02:26:11.275Z,38.50
2017-10-12T02:28:38.844Z,38.40
2017-10-12T02:31:07.884Z,38.40
2017-10-12T02:33:35.414Z,38.40
2017-10-12T02:36:03.765Z,38.40
2017-10-12T02:38:31.303Z,38.40
2017-10-12T02:40:58.846Z,38.40
2017-10-12T02:43:26.391Z,39.10
2017-10-12T02:45:53.953Z,39.20
2017-10-12T02:48:21.486Z,39.00
2017-10-12T02:50:49.081Z,39.50
2017-10-12T02:53:16.599Z,39.40
2017-10-12T02:55:44.947Z,39.90
2017-10-12T02:58:12.494Z,39.40
2017-10-12T03:00:40.025Z,39.30
2017-10-12T03:03:07.604Z,39.60
2017-10-12T03:05:35.130Z,39.90
2017-10-12T03:08:03.416Z,39.80
2017-10-12T03:10:31.762Z,39.60
2017-10-12T03:12:59.283Z,39.70
2017-10-12T03:15:26.827Z,39.60
2017-10-12T03:17:54.501Z,39.80
2017-10-12T03:20:22.159Z,39.60
2017-10-12T03:22:49.867Z,39.40
2017-10-12T03:25:17.419Z,40.00
2017-10-12T03:27:44.949Z,40.00
2017-10-12T03:30:12.503Z,39.60
2017-10-12T03:32:40.030Z,40.00
2017-10-12T03:35:07.611Z,40.20
2017-10-12T03:37:35.169Z,40.00
2017-10-12T03:40:02.685Z,40.00
2017-10-12T03:42:30.319Z,39.90
2017-10-12T03:44:57.893Z,39.90
2017-10-12T03:47:25.418Z,40.10
2017-10-12T03:49:53.171Z,39.70
2017-10-12T03:52:20.699Z,39.80
2017-10-12T03:54:49.017Z,40.00
2017-10-12T03:57:16.570Z,40.00
2017-10-12T03:59:44.141Z,39.90
2017-10-12T04:02:11.693Z,40.20
2017-10-12T04:04:39.217Z,40.40
2017-10-12T04:07:07.555Z,40.30
2017-10-12T04:09:35.119Z,40.30
2017-10-12T04:12:02.784Z,40.00
2017-10-12T04:14:30.310Z,40.40
2017-10-12T04:16:57.874Z,40.30
2017-10-12T04:19:25.401Z,40.40
2017-10-12T04:21:52.991Z,40.40
2017-10-12T04:24:20.521Z,40.60
2017-10-12T04:26:48.957Z,40.30
2017-10-12T04:29:16.504Z,40.30
2017-10-12T04:31:44.197Z,40.50
2017-10-12T04:34:11.737Z,40.70
2017-10-12T04:36:39.335Z,40.40
2017-10-12T04:39:07.641Z,40.20
2017-10-12T04:41:35.200Z,40.20
2017-10-12T04:44:02.905Z,41.70
2017-10-12T04:46:30.449Z,42.20
2017-10-12T04:48:58.017Z,42.30
2017-10-12T04:51:25.602Z,42.20
2017-10-12T04:53:53.149Z,42.20
2017-10-12T04:56:20.668Z,42.20
2017-10-12T04:58:48.585Z,42.00
2017-10-12T05:01:16.241Z,41.90
2017-10-12T05:03:43.948Z,42.00
2017-10-12T05:06:11.512Z,41.90
2017-10-12T05:08:39.043Z,41.90
2017-10-12T05:11:07.352Z,42.00
2017-10-12T05:13:34.993Z,42.00
2017-10-12T05:16:02.499Z,41.90
2017-10-12T05:18:30.128Z,42.00
2017-10-12T05:20:57.701Z,42.00
2017-10-12T05:23:25.276Z,42.10
2017-10-12T05:25:52.780Z,42.10
2017-10-12T05:28:20.369Z,42.50
2017-10-12T05:30:47.893Z,42.40
2017-10-12T05:33:16.218Z,42.90
2017-10-12T05:35:43.763Z,42.90
2017-10-12T05:38:11.394Z,44.50
2017-10-12T05:40:39.736Z,46.20
2017-10-12T05:43:07.306Z,46.30
2017-10-12T05:45:34.842Z,46.00
2017-10-12T05:48:02.491Z,45.20
2017-10-12T05:50:30.074Z,45.20
2017-10-12T05:52:57.655Z,44.90
2017-10-12T05:55:25.991Z,45.40
2017-10-12T05:57:53.537Z,45.30
2017-10-12T06:00:21.101Z,45.40
2017-10-12T06:02:48.656Z,45.40
2017-10-12T06:05:16.283Z,45.30
2017-10-12T06:07:44.905Z,44.90
2017-10-12T06:10:12.435Z,44.90
2017-10-12T06:12:40.777Z,44.60
2017-10-12T06:15:08.365Z,44.60
2017-10-12T06:17:36.766Z,44.20
2017-10-12T06:20:04.341Z,44.20
2017-10-12T06:22:31.903Z,43.90
2017-10-12T06:24:59.419Z,43.40
2017-10-12T06:27:27.849Z,43.20
2017-10-12T06:29:55.529Z,43.10
2017-10-12T06:32:23.114Z,42.90
2017-10-12T06:34:51.431Z,42.50
2017-10-12T06:37:18.983Z,42.50
2017-10-12T06:39:46.942Z,42.50
2017-10-12T06:42:14.466Z,42.80
2017-10-12T06:44:42.027Z,42.60
2017-10-12T06:47:09.702Z,42.60
2017-10-12T06:49:38.125Z,42.50
2017-10-12T06:52:05.695Z,42.40
2017-10-12T06:54:33.239Z,42.50
2017-10-12T06:57:00.795Z,42.30
2017-10-12T06:59:28.356Z,42.40
2017-10-12T07:01:55.915Z,42.30
2017-10-12T07:04:23.485Z,42.20
2017-10-12T07:06:51.037Z,42.20
2017-10-12T07:09:18.562Z,42.10
2017-10-12T07:11:46.915Z,42.00
2017-10-12T07:14:15.222Z,42.50
2017-10-12T07:16:43.516Z,41.90
2017-10-12T07:19:11.248Z,41.90
2017-10-12T07:21:39.536Z,42.00
2017-10-12T07:24:08.017Z,41.90
2017-10-12T07:26:36.322Z,41.80
2017-10-12T07:29:03.967Z,41.90
2017-10-12T07:31:31.522Z,41.70
2017-10-12T07:33:59.826Z,41.80
2017-10-12T07:36:27.527Z,41.80
2017-10-12T07:38:55.070Z,41.70
2017-10-12T07:41:22.620Z,41.80
2017-10-12T07:43:50.296Z,41.80
2017-10-12T07:46:17.890Z,41.70
2017-10-12T07:48:46.218Z,41.60
2017-10-12T07:51:13.754Z,41.60
2017-10-12T07:53:41.344Z,41.00
2017-10-12T07:56:08.920Z,41.00
2017-10-12T07:58:36.453Z,41.20
2017-10-12T08:01:04.001Z,40.80
2017-10-12T08:03:31.875Z,40.70
2017-10-12T08:05:59.427Z,40.70
2017-10-12T08:08:26.984Z,40.60
2017-10-12T08:10:54.518Z,40.70
2017-10-12T08:13:22.844Z,40.40
2017-10-12T08:15:50.400Z,40.50
2017-10-12T08:18:17.960Z,40.50
2017-10-12T08:20:45.564Z,40.60
2017-10-12T08:23:14.038Z,40.40
2017-10-12T08:25:41.604Z,40.50
2017-10-12T08:28:09.902Z,40.30
2017-10-12T08:30:37.434Z,40.30
2017-10-12T08:33:05.748Z,40.50
2017-10-12T08:35:34.228Z,40.30
2017-10-12T08:38:01.790Z,40.30
2017-10-12T08:40:29.556Z,40.30
2017-10-12T08:42:57.067Z,40.20
2017-10-12T08:45:24.684Z,40.20
2017-10-12T08:47:52.336Z,40.40
2017-10-12T08:50:19.902Z,40.30
2017-10-12T08:52:47.454Z,40.30
2017-10-12T08:55:15.018Z,40.20
2017-10-12T08:57:42.688Z,40.30
2017-10-12T09:00:10.226Z,40.40
2017-10-12T09:02:37.886Z,40.60
2017-10-12T09:05:05.429Z,40.70
2017-10-12T09:07:33.744Z,40.60
2017-10-12T09:10:01.396Z,40.70
2017-10-12T09:12:28.943Z,41.40
2017-10-12T09:14:56.484Z,40.70
2017-10-12T09:17:24.807Z,41.80
2017-10-12T09:19:52.390Z,41.80
2017-10-12T09:22:19.926Z,43.60
2017-10-12T09:24:47.466Z,43.60
2017-10-12T09:27:15.045Z,43.60
2017-10-12T09:29:42.626Z,43.00
2017-10-12T09:32:10.180Z,42.80
2017-10-12T09:34:37.710Z,42.60
2017-10-12T09:37:05.256Z,42.40
2017-10-12T09:39:32.952Z,42.40
2017-10-12T09:42:00.506Z,42.30
2017-10-12T09:44:28.080Z,42.20
2017-10-12T09:46:55.720Z,42.20
2017-10-12T09:49:23.248Z,42.20
2017-10-12T09:51:51.738Z,42.50
2017-10-12T09:54:19.261Z,42.50
2017-10-12T09:56:46.819Z,43.10
2017-10-12T09:59:14.352Z,43.50
2017-10-12T10:01:41.985Z,43.90
2017-10-12T10:04:09.498Z,43.60
2017-10-12T10:06:37.033Z,44.00
2017-10-12T10:09:04.601Z,43.50
2017-10-12T10:11:32.222Z,43.90
2017-10-12T10:13:59.826Z,43.80
2017-10-12T10:16:27.358Z,43.60
2017-10-12T10:18:54.904Z,43.50
2017-10-12T10:21:22.464Z,43.30
2017-10-12T10:23:49.998Z,43.20
2017-10-12T10:26:18.322Z,43.00
2017-10-12T10:28:45.934Z,43.00
2017-10-12T10:31:14.242Z,42.90
2017-10-12T10:33:41.797Z,42.90
2017-10-12T10:36:09.371Z,42.80
2017-10-12T10:38:36.956Z,42.80
2017-10-12T10:41:05.291Z,42.80
2017-10-12T10:43:32.793Z,42.80
2017-10-12T10:46:00.342Z,42.90
2017-10-12T10:48:27.887Z,42.90
2017-10-12T10:50:55.461Z,42.90
2017-10-12T10:53:22.996Z,42.90
2017-10-12T10:55:50.561Z,42.80
2017-10-12T10:58:18.116Z,42.70
2017-10-12T11:00:45.731Z,42.80
2017-10-12T11:03:14.029Z,42.70
2017-10-12T11:05:41.567Z,42.70
2017-10-12T11:08:09.907Z,43.40
2017-10-12T11:10:37.529Z,42.70
2017-10-12T11:13:05.105Z,42.70
2017-10-12T11:15:32.619Z,42.70
2017-10-12T11:18:00.911Z,42.60
2017-10-12T11:20:28.685Z,42.60
2017-10-12T11:22:56.263Z,42.60
2017-10-12T11:25:23.852Z,42.60
2017-10-12T11:27:51.414Z,42.50
2017-10-12T11:30:19.038Z,42.60
2017-10-12T11:32:46.805Z,42.60
2017-10-12T11:35:14.466Z,47.50
2017-10-12T11:37:42.008Z,43.70
2017-10-12T11:40:09.705Z,42.00
2017-10-12T11:42:37.229Z,39.90
2017-10-12T11:45:05.567Z,39.80
2017-10-12T11:47:33.119Z,39.80
2017-10-12T11:50:00.686Z,39.70
2017-10-12T11:52:28.385Z,39.70
2017-10-12T11:54:56.703Z,39.60
2017-10-12T11:57:24.200Z,39.70
2017-10-12T11:59:51.778Z,39.60
2017-10-12T12:02:20.142Z,39.30
2017-10-12T12:04:48.559Z,39.40
2017-10-12T12:07:16.115Z,39.40
2017-10-12T12:09:43.632Z,39.70
2017-10-12T12:12:11.917Z,39.90
2017-10-12T12:14:40.235Z,40.10
2017-10-12T12:17:07.791Z,40.20
2017-10-12T12:19:35.449Z,39.40
2017-10-12T12:22:02.979Z,40.00
2017-10-12T12:24:31.292Z,39.60
2017-10-12T12:26:59.082Z,39.70
2017-10-12T12:29:26.644Z,39.10
2017-10-12T12:31:54.179Z,39.10
2017-10-12T12:34:21.738Z,39.10
2017-10-12T12:36:49.273Z,39.10
2017-10-12T12:39:16.843Z,39.10
2017-10-12T12:41:44.413Z,39.10
2017-10-12T12:44:11.979Z,39.10
2017-10-12T12:46:39.658Z,39.40
2017-10-12T12:49:07.189Z,40.40
2017-10-12T12:51:34.830Z,40.70
2017-10-12T12:54:02.391Z,40.90
2017-10-12T12:56:29.947Z,41.00
2017-10-12T12:58:58.502Z,41.40
2017-10-12T13:01:26.021Z,41.40
2017-10-12T13:03:53.569Z,41.80
2017-10-12T13:06:21.101Z,42.30
2017-10-12T13:08:49.451Z,42.30
2017-10-12T13:11:17.025Z,42.20
2017-10-12T13:13:45.337Z,42.20
2017-10-12T13:16:12.916Z,42.20
2017-10-12T13:18:41.265Z,42.20
2017-10-12T13:21:08.863Z,42.40
2017-10-12T13:23:36.507Z,42.30
2017-10-12T13:26:04.121Z,42.50
2017-10-12T13:28:32.545Z,42.60
2017-10-12T13:31:00.084Z,42.60
2017-10-12T13:33:27.703Z,42.40
2017-10-12T13:35:55.298Z,42.10
2017-10-12T13:38:22.919Z,42.30
2017-10-12T13:40:50.523Z,42.30
2017-10-12T13:43:18.086Z,42.10
2017-10-12T13:45:45.716Z,42.00
2017-10-12T13:48:14.049Z,41.60
2017-10-12T13:50:41.642Z,41.50
2017-10-12T13:53:09.464Z,41.40
2017-10-12T13:55:37.094Z,41.30
2017-10-12T13:58:05.712Z,41.10
2017-10-12T14:00:33.408Z,41.10
2017-10-12T14:03:01.141Z,40.90
2017-10-12T14:05:28.949Z,40.60
2017-10-12T14:07:56.488Z,40.40
2017-10-12T14:10:24.024Z,40.10
2017-10-12T14:12:51.600Z,40.10
2017-10-12T14:15:19.156Z,40.00
2017-10-12T14:17:46.672Z,40.10
2017-10-12T14:20:14.268Z,40.10
2017-10-12T14:22:41.825Z,40.10
2017-10-12T14:25:09.376Z,40.10
2017-10-12T14:27:37.010Z,40.10
2017-10-12T14:30:05.484Z,40.10
2017-10-12T14:32:33.010Z,39.90
2017-10-12T14:35:00.634Z,40.00
2017-10-12T14:37:28.282Z,40.00
2017-10-12T14:39:55.860Z,39.10
2017-10-12T14:42:23.414Z,39.90
2017-10-12T14:44:51.012Z,39.90
2017-10-12T14:47:18.547Z,39.90
2017-10-12T14:49:46.104Z,39.50
2017-10-12T14:52:13.697Z,39.00
2017-10-12T14:54:41.216Z,37.90
2017-10-12T14:57:08.723Z,38.00
2017-10-12T14:59:36.350Z,37.60
2017-10-12T15:02:03.898Z,37.70
2017-10-12T15:04:31.467Z,37.60
2017-10-12T15:06:58.993Z,37.80
2017-10-12T15:09:26.742Z,37.70
2017-10-12T15:11:55.060Z,37.80
2017-10-12T15:14:22.609Z,37.90
2017-10-12T15:16:50.255Z,37.90
2017-10-12T15:19:17.792Z,37.80
2017-10-12T15:21:46.128Z,38.00
2017-10-12T15:24:13.669Z,38.60
2017-10-12T15:26:41.202Z,37.90
2017-10-12T15:29:09.475Z,38.10
2017-10-12T15:31:37.058Z,38.10
2017-10-12T15:34:04.586Z,38.20
2017-10-12T15:36:32.878Z,38.40
2017-10-12T15:39:00.444Z,38.40
2017-10-12T15:41:27.976Z,38.20
2017-10-12T15:43:56.278Z,38.40
2017-10-12T15:46:23.852Z,38.50
2017-10-12T15:48:51.377Z,38.70
2017-10-12T15:51:19.805Z,40.00
2017-10-12T15:53:47.312Z,40.00
2017-10-12T15:56:15.633Z,40.10
2017-10-12T15:58:43.220Z,40.10
2017-10-12T16:01:11.562Z,40.00
2017-10-12T16:03:39.138Z,40.20
2017-10-12T16:06:06.809Z,40.30
2017-10-12T16:08:34.337Z,44.30
2017-10-12T16:11:01.894Z,40.60
2017-10-12T16:13:29.440Z,40.80
2017-10-12T16:15:56.977Z,39.70
2017-10-12T16:18:24.555Z,39.20
2017-10-12T16:20:52.916Z,39.10
2017-10-12T16:23:21.281Z,40.30
2017-10-12T16:25:48.830Z,39.60
2017-10-12T16:28:16.370Z,39.50
2017-10-12T16:30:43.929Z,39.40
2017-10-12T16:33:11.532Z,39.60
2017-10-12T16:35:39.825Z,39.70
2017-10-12T16:38:08.156Z,41.00
2017-10-12T16:40:35.686Z,41.00
2017-10-12T16:43:03.353Z,40.80
2017-10-12T16:45:30.872Z,40.90
2017-10-12T16:47:59.218Z,40.80
2017-10-12T16:52:54.435Z,40.70
2017-10-12T16:55:21.981Z,40.60
2017-10-12T16:57:49.519Z,40.60
2017-10-12T17:00:17.140Z,40.60
2017-10-12T17:02:44.705Z,40.60
2017-10-12T17:05:13.028Z,40.50
2017-10-12T17:07:40.562Z,40.50
2017-10-12T17:10:08.156Z,40.50
2017-10-12T17:12:35.904Z,40.50
2017-10-12T17:15:03.684Z,40.40
2017-10-12T17:17:31.348Z,40.60
2017-10-12T17:19:58.926Z,40.40
2017-10-12T17:22:26.844Z,40.70
2017-10-12T17:24:54.518Z,41.00
2017-10-12T17:27:22.282Z,41.10
2017-10-12T17:29:49.925Z,41.10
2017-10-12T17:32:17.815Z,41.30
2017-10-12T17:34:45.678Z,41.30
2017-10-12T17:37:13.547Z,41.30
2017-10-12T17:39:41.359Z,41.20
2017-10-12T17:42:09.937Z,40.90
2017-10-12T17:44:38.583Z,41.20
2017-10-12T17:47:06.651Z,41.20
2017-10-12T17:49:34.619Z,41.30
2017-10-12T17:52:02.543Z,41.40
2017-10-12T17:54:37.445Z,41.30
2017-10-12T17:56:58.527Z,41.20
2017-10-12T17:59:27.932Z,41.20
2017-10-12T18:01:55.899Z,41.30
2017-10-12T18:06:51.862Z,41.80
2017-10-12T18:09:20.439Z,41.60
2017-10-12T18:14:15.898Z,41.60
2017-10-12T18:16:44.444Z,41.60
2017-10-12T18:19:12.099Z,41.50
2017-10-12T18:21:39.959Z,41.70
2017-10-12T18:24:08.074Z,41.70
2017-10-12T18:26:36.715Z,41.50
2017-10-12T18:29:04.478Z,41.60
2017-10-12T18:31:32.297Z,41.70
2017-10-12T18:34:00.664Z,41.90
2017-10-12T18:36:28.331Z,41.80
2017-10-12T18:38:56.715Z,41.90
2017-10-12T18:41:24.307Z,41.90
2017-10-12T18:43:51.887Z,42.10
2017-10-12T18:46:19.494Z,42.10
2017-10-12T18:48:47.920Z,42.10
2017-10-12T18:51:15.564Z,42.10
2017-10-12T18:53:43.980Z,42.20
2017-10-12T18:56:11.577Z,42.20
2017-10-12T18:58:39.194Z,42.30
2017-10-12T19:01:06.903Z,42.30
2017-10-12T19:03:34.462Z,42.30
2017-10-12T19:06:02.772Z,43.10
2017-10-12T19:08:30.354Z,42.40
2017-10-12T19:10:57.924Z,42.50
2017-10-12T19:13:25.488Z,42.30
2017-10-12T19:15:53.068Z,42.50
2017-10-12T19:18:20.608Z,42.50
2017-10-12T19:20:48.190Z,42.50
2017-10-12T19:23:15.805Z,42.50
2017-10-12T19:25:43.453Z,42.50
2017-10-12T19:30:39.433Z,42.60
2017-10-12T19:33:07.987Z,42.30
2017-10-12T19:35:35.597Z,42.40
2017-10-12T19:38:03.146Z,42.40
2017-10-12T19:40:30.735Z,43.10
2017-10-12T19:42:59.038Z,42.40
2017-10-12T19:45:26.609Z,42.40
2017-10-12T19:47:54.198Z,42.50
2017-10-12T19:50:21.834Z,42.40
2017-10-12T19:52:49.424Z,42.40
2017-10-12T19:55:17.008Z,42.40
2017-10-12T19:57:44.562Z,42.50
2017-10-12T20:00:12.075Z,42.50
2017-10-12T20:02:39.679Z,42.60
2017-10-12T20:05:08.035Z,42.50
2017-10-12T20:07:35.569Z,42.50
2017-10-12T20:10:03.170Z,42.50
2017-10-12T20:12:30.679Z,42.50
2017-10-12T20:14:58.270Z,42.50
2017-10-12T20:17:25.810Z,42.50
2017-10-12T20:19:53.372Z,42.50
2017-10-12T20:22:20.943Z,42.50
2017-10-12T20:24:48.600Z,42.50
2017-10-12T20:27:16.160Z,42.40
2017-10-12T20:29:43.700Z,42.50
2017-10-12T20:32:11.568Z,42.50
2017-10-12T20:34:39.105Z,42.30
2017-10-12T20:37:07.618Z,42.50
2017-10-12T20:39:35.168Z,42.50
2017-10-12T20:42:17.692Z,42.50
2017-10-12T20:44:30.292Z,42.40
2017-10-12T20:46:57.851Z,42.50
2017-10-12T20:49:25.407Z,42.40
2017-10-12T20:51:53.165Z,42.50
2017-10-12T20:54:20.715Z,42.50
2017-10-12T20:56:48.286Z,42.50
2017-10-12T20:59:16.057Z,42.30
2017-10-12T21:01:43.579Z,42.40
2017-10-12T21:04:11.976Z,42.30
2017-10-12T21:06:39.520Z,42.30
2017-10-12T21:09:07.808Z,42.20
2017-10-12T21:11:35.364Z,42.20
2017-10-12T21:14:02.926Z,42.30
2017-10-12T21:16:30.489Z,42.30
2017-10-12T21:18:58.064Z,42.30
2017-10-12T21:21:25.602Z,42.30
2017-10-12T21:23:53.167Z,42.30
2017-10-12T21:26:20.923Z,42.30
2017-10-12T21:28:49.241Z,42.60
2017-10-12T21:31:16.764Z,42.60
2017-10-12T21:33:44.362Z,42.60
2017-10-12T21:36:11.897Z,42.60
2017-10-12T21:38:39.436Z,42.70
2017-10-12T21:41:07.750Z,42.80
2017-10-12T21:43:35.302Z,42.80
2017-10-12T21:46:02.844Z,42.90
2017-10-12T21:48:30.404Z,42.90
2017-10-12T21:50:58.123Z,42.80
2017-10-12T21:53:25.647Z,43.40
2017-10-12T21:55:53.199Z,43.00
2017-10-12T21:58:20.732Z,43.10
2017-10-12T22:00:48.271Z,43.10
2017-10-12T22:03:16.636Z,43.10
2017-10-12T22:05:44.173Z,43.10
2017-10-12T22:08:11.719Z,43.10
2017-10-12T22:10:39.268Z,43.10
2017-10-12T22:13:06.816Z,43.10
2017-10-12T22:15:34.357Z,43.10
2017-10-12T22:18:02.671Z,42.90
2017-10-12T22:20:30.232Z,42.90
2017-10-12T22:22:58.167Z,43.10
2017-10-12T22:25:25.737Z,43.00
2017-10-12T22:27:53.412Z,43.10
2017-10-12T22:30:20.987Z,43.00
2017-10-12T22:32:48.493Z,43.10
2017-10-12T22:35:16.861Z,42.70
2017-10-12T22:37:44.396Z,42.80
2017-10-12T22:40:11.954Z,42.80
2017-10-12T22:42:39.539Z,42.80
2017-10-12T22:45:07.089Z,42.60
2017-10-12T22:47:35.425Z,42.60
2017-10-12T22:50:03.021Z,42.70
2017-10-12T22:52:30.617Z,42.80
2017-10-12T22:54:58.903Z,42.50
2017-10-12T22:57:26.445Z,42.40
2017-10-12T22:59:54.767Z,42.40
2017-10-12T23:02:23.218Z,42.90
2017-10-12T23:04:50.797Z,42.90
2017-10-12T23:07:18.334Z,42.10
2017-10-12T23:09:46.611Z,42.00
2017-10-12T23:12:14.191Z,42.10
2017-10-12T23:14:41.725Z,42.00
2017-10-12T23:17:09.376Z,41.90
2017-10-12T23:19:37.671Z,42.10
2017-10-12T23:22:05.225Z,42.10
2017-10-12T23:24:32.779Z,42.00
2017-10-12T23:27:01.086Z,41.80
2017-10-12T23:29:28.655Z,41.80
2017-10-12T23:31:56.191Z,41.90
2017-10-12T23:34:23.716Z,41.90
2017-10-12T23:36:51.290Z,41.80
2017-10-12T23:39:19.628Z,41.80
2017-10-12T23:41:47.155Z,41.80
2017-10-12T23:44:14.690Z,41.80
2017-10-12T23:46:42.972Z,41.90
2017-10-12T23:49:10.501Z,41.90
2017-10-12T23:51:38.403Z,41.90
2017-10-12T23:54:05.929Z,42.00
2017-10-12T23:56:35.230Z,42.10
2017-10-12T23:59:03.671Z,42.10
